• Join FlightAware (Why Join?)
  • Login
  • US Flag GB Flag 
21:48 EDT


 

Airport Tracker/Info


-or-


 

Live Flight TrackerFlight Track Log ✈ AFL150 ✈ 07-Oct-2013 ✈ UUEE / SVO - MUHA / HAV

Flight Track Log - Related Links

Times and Time Zones

All times are in EDT time to prevent confusion due to time zone crossing. See the AFL150 flight status page for this flight to view local times or setup timezone preferences in your user account.

Time Position Orientation Groundspeed Altitude Reporting Facility
EDT Latitude Longitude Course Direction KTS MPH feet Rate Location/Type
09:15 55.9640 37.3640 254° West 168 193 1,800  Level FlightAware
09:16 55.9600 37.3380 255° West 156 180 2,800 1,800 Climbing FlightAware
09:16 55.9570 37.3110 259° West 177 204 3,000 900 Climbing FlightAware
09:16 55.9620 37.2810 287° West 197 227 3,400 1,020 Climbing FlightAware
09:17 55.9710 37.2400 291° West 228 262 3,800 1,560 Climbing FlightAware
09:17 55.9800 37.2040 294° West 234 269 4,600 1,920 Climbing FlightAware
09:18 55.9890 37.1690 295° West 234 269 5,100 1,620 Climbing FlightAware
09:18 55.9980 37.1340 295° West 241 277 5,700 2,100 Climbing FlightAware
09:18 56.0090 37.0910 295° West 241 277 6,700 2,400 Climbing FlightAware
09:19 56.0160 37.0600 292° West 247 284 7,300 2,520 Climbing FlightAware
09:19 56.0280 37.0130 295° West 250 288 8,400 2,520 Climbing FlightAware
09:19 56.0400 36.9660 295° West 254 292 9,400 2,400 Climbing FlightAware
09:20 56.0540 36.9070 293° West 261 300 10,600 1,500 Climbing FlightAware
09:21 56.0750 36.8220 294° West 298 343 11,200 1,020 Climbing FlightAware
09:21 56.0920 36.7520 294° West 324 373 11,800 1,620 Climbing FlightAware
09:22 56.1130 36.6660 294° West 332 382 13,100 2,220 Climbing FlightAware
09:22 56.1380 36.5750 296° West 338 389 14,400 2,460 Climbing FlightAware
09:22 56.1480 36.5550 312° West 340 391 14,800 2,400 Climbing FlightAware
09:23 56.1610 36.5380 324° Northwest 343 395 15,200 1,800 Climbing FlightAware
09:23 56.2180 36.4820 331° Northwest 360 414 16,300 1,800 Climbing FlightAware
09:24 56.2610 36.4400 332° Northwest 362 417 17,400 2,040 Climbing FlightAware
09:24 56.3210 36.3810 331° Northwest 369 425 18,700 1,980 Climbing FlightAware
09:25 56.3670 36.3370 332° Northwest 374 430 19,700 1,860 Climbing FlightAware
09:26 56.4280 36.2770 331° Northwest 378 435 20,900 1,680 Climbing FlightAware
09:26 56.4740 36.2320 332° Northwest 383 441 21,700 2,100 Climbing FlightAware
09:27 56.5280 36.1790 332° Northwest 373 429 23,200 2,520 Climbing FlightAware
09:27 56.5790 36.1290 332° Northwest 360 414 24,700 1,980 Climbing FlightAware
09:28 56.6370 36.0720 332° Northwest 362 417 25,700 1,440 Climbing FlightAware
09:28 56.6820 36.0270 331° Northwest 366 421 26,400 1,380 Climbing FlightAware
09:29 56.7350 35.9750 332° Northwest 369 425 27,200 1,320 Climbing FlightAware
09:30 56.7870 35.9230 331° Northwest 370 426 28,000 1,200 Climbing FlightAware
09:30 56.8470 35.8630 331° Northwest 374 430 28,700 900 Climbing FlightAware
09:31 56.8930 35.8170 331° Northwest 380 437 29,100 840 Climbing FlightAware
09:31 56.9560 35.7540 331° Northwest 386 444 29,700 840 Climbing FlightAware
09:32 57.0020 35.7070 331° Northwest 391 450 30,100 780 Climbing FlightAware
09:32 57.0580 35.6510 331° Northwest 394 453 30,600 720 Climbing FlightAware
09:33 57.1140 35.5940 331° Northwest 397 457 31,000 900 Climbing FlightAware
09:34 57.1700 35.5360 331° Northwest 395 455 31,700 1,260 Climbing FlightAware
09:34 57.2340 35.4710 331° Northwest 390 449 32,600 1,200 Climbing FlightAware
09:35 57.2810 35.4230 331° Northwest 390 449 33,100 840 Climbing FlightAware
09:35 57.3440 35.3580 331° Northwest 390 449 33,600 840 Climbing FlightAware
09:36 57.3910 35.3090 331° Northwest 388 447 34,100 720 Climbing FlightAware
09:37 57.4540 35.2440 331° Northwest 391 450 34,500 480 Climbing FlightAware
09:37 57.5000 35.1960 331° Northwest 394 453 34,700 480 Climbing FlightAware
09:38 57.5570 35.1360 331° Northwest 397 457 35,100 540 Climbing FlightAware
09:38 57.6210 35.0690 331° Northwest 400 460 35,400 480 Climbing FlightAware
09:39 57.6770 35.0110 331° Northwest 403 464 35,700 360 Climbing FlightAware
09:39 57.7240 34.9560 328° Northwest 404 465 35,800 240 Climbing FlightAware
09:40 57.7780 34.8810 323° Northwest 408 470 36,000 120 Climbing FlightAware
09:41 57.8320 34.8090 325° Northwest 414 476 36,000  Level FlightAware
09:41 57.8860 34.7350 324° Northwest 415 478 36,000  Level FlightAware
09:42 57.9480 34.6490 324° Northwest 416 479 36,000  Level FlightAware
09:42 58.0010 34.5740 323° Northwest 416 479 36,000  Level FlightAware
09:43 58.0480 34.5080 323° Northwest 416 479 36,000  Level FlightAware
09:44 58.1010 34.4340 324° Northwest 415 478 36,000  Level FlightAware
09:44 58.1540 34.3590 323° Northwest 415 478 36,000  Level FlightAware
09:45 58.2150 34.2670 322° Northwest 411 473 36,000  Level FlightAware
09:45 58.2660 34.1880 321° Northwest 409 471 36,000  Level FlightAware
09:46 58.3100 34.1200 321° Northwest 408 470 36,000  Level FlightAware
09:46 58.3610 34.0430 322° Northwest 407 468 36,000  Level FlightAware
09:47 58.4250 33.9440 321° Northwest 401 461 36,000  Level FlightAware
09:48 58.4880 33.8450 321° Northwest 400 460 36,000  Level FlightAware
09:49 58.5530 33.7450 321° Northwest 400 460 36,000  Level FlightAware
09:49 58.6120 33.6550 322° Northwest 405 466 36,000  Level FlightAware
09:50 58.6550 33.5870 321° Northwest 405 466 36,000  Level FlightAware
09:50 58.7050 33.5100 321° Northwest 406 467 36,000  Level FlightAware
09:51 58.7670 33.3980 317° Northwest 404 465 36,000  Level FlightAware
09:52 58.8100 33.3160 315° West 405 466 36,000  Level FlightAware
09:52 58.8590 33.2230 316° Northwest 405 466 36,000  Level FlightAware
09:53 58.9110 33.1210 315° West 405 466 36,000  Level FlightAware
09:54 58.9650 33.0160 315° West 405 466 36,000  Level FlightAware
09:54 59.0050 32.9370 315° West 405 466 36,000  Level FlightAware
09:55 59.0490 32.8510 315° West 406 467 36,000  Level FlightAware
09:55 59.1040 32.7430 315° West 408 470 36,000  Level FlightAware
09:56 59.1430 32.6660 315° West 408 470 36,000  Level FlightAware
09:56 59.1900 32.5710 314° West 410 472 36,000  Level FlightAware
09:57 59.2370 32.4790 315° West 413 475 36,000  Level FlightAware
09:58 59.2890 32.3740 314° West 413 475 36,000  Level FlightAware
09:58 59.3280 32.2960 314° West 412 474 36,000  Level FlightAware
09:59 59.3750 32.2000 314° West 410 472 36,000  Level FlightAware
09:59 59.4250 32.0890 312° West 410 472 36,000  Level FlightAware
10:00 59.4560 31.9960 303° West 411 473 36,000  Level FlightAware
10:00 59.4770 31.8930 292° West 414 476 36,000  Level FlightAware
10:01 59.4840 31.7590 276° West 416 479 36,000  Level FlightAware
10:02 59.4920 31.6310 277° West 418 481 36,000  Level FlightAware
10:02 59.4990 31.4850 275° West 419 482 36,000  Level FlightAware
10:03 59.5060 31.3490 276° West 421 484 36,000  Level FlightAware
10:04 59.5140 31.1930 276° West 422 486 36,000  Level FlightAware
10:04 59.5210 31.0620 276° West 423 487 36,000  Level FlightAware
10:05 59.5270 30.9450 276° West 422 486 36,000  Level FlightAware
10:05 59.5330 30.8100 275° West 421 484 36,000  Level FlightAware
10:06 59.5400 30.6620 275° West 419 482 36,000  Level FlightAware
10:06 59.5450 30.5550 275° West 418 481 36,000  Level FlightAware
10:07 59.5520 30.3950 275° West 417 480 36,000  Level FlightAware
10:08 59.5570 30.2830 275° West 418 481 36,000  Level FlightAware
10:08 59.5620 30.1580 275° West 418 481 36,000  Level FlightAware
10:09 59.5680 30.0170 275° West 419 482 36,000  Level FlightAware
10:09 59.5730 29.8830 274° West 419 482 36,000  Level FlightAware
10:10 59.5790 29.7490 275° West 420 483 36,000  Level FlightAware
10:11 59.5970 29.5840 282° West 416 479 36,000  Level FlightAware
10:12 59.6160 29.4310 284° West 415 478 36,000  Level FlightAware
10:12 59.6350 29.2770 284° West 413 475 36,000  Level FlightAware
10:13 59.6550 29.1110 283° West 411 473 36,000  Level FlightAware
10:13 59.6690 28.9960 284° West 411 473 36,000  Level FlightAware
10:14 59.6840 28.8670 283° West 411 473 36,000  Level FlightAware
10:14 59.6990 28.7370 283° West 411 473 36,000  Level FlightAware
10:15 59.7130 28.6120 283° West 411 473 36,000  Level FlightAware
10:16 59.7280 28.4860 283° West 411 473 36,000  Level FlightAware
10:16 59.7430 28.3510 282° West 410 472 36,000  Level FlightAware
10:17 59.7580 28.2220 283° West 409 471 36,000  Level FlightAware
10:17 59.7720 28.0930 282° West 409 471 36,000  Level FlightAware
10:18 59.7860 27.9630 282° West 410 472 36,000  Level FlightAware
10:19 59.8010 27.8300 283° West 409 471 36,000  Level FlightAware
10:19 59.8130 27.7170 282° West 408 470 36,000  Level FlightAware
10:20 59.8260 27.5980 282° West 406 467 36,000  Level FlightAware
10:20 59.8400 27.4630 282° West 403 464 36,000  Level FlightAware
10:21 59.8540 27.3310 282° West 400 460 36,000  Level FlightAware
10:22 59.8670 27.2030 281° West 398 458 36,000  Level FlightAware
10:22 59.8800 27.0750 281° West 397 457 36,000  Level FlightAware
10:23 59.8920 26.9570 282° West 398 458 36,000  Level FlightAware
10:23 59.9050 26.8290 282° West 399 459 36,000  Level FlightAware
10:24 59.9190 26.6940 282° West 399 459 36,000  Level FlightAware
10:24 59.9310 26.5710 281° West 399 459 36,000  Level FlightAware
10:25 59.9420 26.4540 281° West 399 459 36,000  Level FlightAware
10:26 59.9570 26.3300 284° West 397 457 36,000  Level FlightAware
10:26 59.9790 26.2180 291° West 395 455 36,000  Level FlightAware
10:27 60.0070 26.1050 296° West 395 455 36,000  Level FlightAware
10:27 60.0400 25.9810 298° West 395 455 36,000  Level FlightAware
10:28 60.0740 25.8750 303° West 396 456 36,000  Level FlightAware
10:29 60.1110 25.7560 302° West 398 458 36,000  Level FlightAware
10:29 60.1420 25.6550 302° West 396 456 36,000  Level FlightAware
10:30 60.1740 25.5470 301° West 393 452 36,000  Level FlightAware
10:30 60.2090 25.4330 302° West 392 451 36,000  Level FlightAware
10:31 60.2410 25.3240 301° West 391 450 36,000  Level FlightAware
10:31 60.2730 25.2180 301° West 390 449 36,000  Level FlightAware
10:32 60.3050 25.1100 301° West 388 447 36,000  Level FlightAware
10:33 60.3380 24.9950 300° West 388 447 36,000  Level FlightAware
10:33 60.3680 24.8940 301° West 387 445 36,000  Level FlightAware
10:34 60.3970 24.7940 300° West 388 447 36,000  Level FlightAware
10:34 60.4310 24.6790 301° West 388 447 36,000  Level FlightAware
10:35 60.4650 24.5620 301° West 388 447 36,000  Level FlightAware
10:36 60.4960 24.4520 300° West 388 447 36,000  Level FlightAware
10:36 60.5250 24.3500 300° West 389 448 36,000  Level FlightAware
10:37 60.5560 24.2440 301° West 389 448 36,000  Level FlightAware
10:37 60.5870 24.1350 300° West 388 447 36,000  Level FlightAware
10:38 60.6200 24.0170 300° West 386 444 36,000  Level FlightAware
10:38 60.6530 23.9000 300° West 385 443 36,000  Level FlightAware
10:39 60.6840 23.7870 299° West 386 444 36,000  Level FlightAware
10:40 60.7130 23.6830 300° West 388 447 36,000  Level FlightAware
10:40 60.7440 23.5730 300° West 390 449 36,000  Level FlightAware
10:41 60.7740 23.4630 299° West 389 448 36,000  Level FlightAware
10:41 60.8050 23.3500 299° West 389 448 36,000  Level FlightAware
10:42 60.8390 23.2260 299° West 390 449 36,000  Level FlightAware
10:42 60.8650 23.1300 299° West 391 450 36,000  Level FlightAware
10:43 60.8980 23.0090 299° West 390 449 36,000  Level FlightAware
10:44 60.9290 22.8910 298° West 391 450 36,000  Level FlightAware
10:44 60.9590 22.7800 299° West 389 448 36,000  Level FlightAware
10:45 60.9920 22.6580 299° West 387 445 36,000  Level FlightAware
10:45 61.0190 22.5530 298° West 386 444 36,000  Level FlightAware
10:46 61.0490 22.4400 299° West 387 445 36,000  Level FlightAware
10:47 61.0800 22.3190 298° West 388 447 36,000  Level FlightAware
10:47 61.1060 22.2210 299° West 390 449 36,000  Level FlightAware
10:48 61.1380 22.0990 299° West 393 452 36,000  Level FlightAware
10:48 61.1700 21.9720 298° West 395 455 36,000  Level FlightAware
10:49 61.1899 21.8959 299° West 396 456 36,000  Level FlightAware ADS-B
10:49 61.2134 21.8039 298° West 396 456 36,000  Level FlightAware ADS-B
10:50 61.2570 21.6320 298° West 396 456 36,000  Level FlightAware
10:50 61.2628 21.6097 298° West 398 458 36,000  Level FlightAware ADS-B
10:51 61.3150 21.4030 298° West 398 458 36,000  Level FlightAware
10:52 61.3482 21.2695 297° West 399 459 36,000  Level FlightAware ADS-B
10:52 61.3760 21.1590 298° West 399 459 36,000  Level FlightAware
10:53 61.4060 21.0360 297° West 399 459 36,000  Level FlightAware
10:54 61.4330 20.9280 298° West 398 458 36,000  Level FlightAware
10:54 61.4388 20.9024 296° West 398 458 36,000  Level FlightAware ADS-B
10:54 61.4702 20.7743 297° West 398 458 36,000  Level FlightAware ADS-B
10:55 61.4995 20.6532 297° West 398 458 36,000  Level FlightAware ADS-B
10:55 61.5230 20.5540 296° West 396 456 36,000  Level FlightAware
10:55 61.5277 20.5366 299° West 396 456 36,000  Level FlightAware ADS-B
10:56 61.5506 20.4412 297° West 396 456 36,000  Level FlightAware ADS-B
10:57 61.5800 20.3170 296° West 393 452 36,000  Level FlightAware
10:57 61.6080 20.2000 297° West 393 452 36,000  Level FlightAware
10:58 61.6350 20.0880 297° West 393 452 36,000  Level FlightAware
10:58 61.6630 19.9690 296° West 393 452 36,000  Level FlightAware
10:59 61.6836 19.8792 296° West 393 452 36,000  Level FlightAware ADS-B
10:59 61.7149 19.7445 296° West 394 453 36,000  Level FlightAware ADS-B
11:00 61.7440 19.6170 296° West 394 453 36,000  Level FlightAware
11:01 61.7750 19.4830 296° West 393 452 36,000  Level FlightAware
11:01 61.8070 19.3570 298° West 392 451 36,000  Level FlightAware
11:02 61.8360 19.2400 298° West 393 452 36,000  Level FlightAware
11:02 61.8610 19.1370 297° West 393 452 36,000  Level FlightAware
11:03 61.8940 19.0040 298° West 391 450 36,000  Level FlightAware
11:04 61.9240 18.8780 297° West 390 449 36,000  Level FlightAware
11:04 61.9510 18.7670 297° West 390 449 36,000  Level FlightAware
11:05 61.9820 18.6400 298° West 392 451 36,000  Level FlightAware
11:05 62.0080 18.5280 296° West 394 453 36,000  Level FlightAware
11:06 62.0350 18.4140 297° West 393 452 36,000  Level FlightAware
11:06 62.0680 18.2750 297° West 395 455 36,000  Level FlightAware
11:07 62.0930 18.1690 297° West 395 455 36,000  Level FlightAware
11:08 62.1230 18.0410 297° West 398 458 36,000  Level FlightAware
11:08 62.1520 17.9150 296° West 401 461 36,000  Level FlightAware
11:09 62.1780 17.8000 296° West 404 465 36,000  Level FlightAware
11:09 62.2030 17.6940 297° West 407 468 36,000  Level FlightAware
11:10 62.2350 17.5390 294° West 407 468 36,000  Level FlightAware
11:11 62.2570 17.4100 290° West 408 470 36,000  Level FlightAware
11:11 62.2750 17.3030 290° West 409 471 36,000  Level FlightAware
11:12 62.3000 17.1580 290° West 409 471 36,000  Level FlightAware
11:12 62.3260 17.0050 290° West 408 470 36,000  Level FlightAware
11:13 62.3490 16.8680 290° West 406 467 36,000  Level FlightAware
11:13 62.3690 16.7450 289° West 406 467 36,000  Level FlightAware
11:14 62.3930 16.6010 290° West 405 466 36,000  Level FlightAware
11:15 62.4120 16.4820 289° West 401 461 36,000  Level FlightAware
11:15 62.4350 16.3420 290° West 399 459 36,000  Level FlightAware
11:16 62.4560 16.2100 289° West 395 455 36,000  Level FlightAware
11:16 62.4760 16.0860 289° West 394 453 36,000  Level FlightAware
11:17 62.4970 15.9520 289° West 393 452 36,000  Level FlightAware
11:17 62.5160 15.8340 289° West 392 451 36,000  Level FlightAware
11:18 62.5360 15.7060 289° West 392 451 36,000  Level FlightAware
11:19 62.5560 15.5760 289° West 393 452 36,000  Level FlightAware
11:19 62.5780 15.4340 289° West 393 452 36,000  Level FlightAware
11:20 62.5980 15.2980 288° West 392 451 36,000  Level FlightAware
11:20 62.6180 15.1720 289° West 390 449 36,000  Level FlightAware
11:21 62.6360 15.0480 288° West 389 448 36,000  Level FlightAware
11:22 62.6560 14.9150 288° West 388 447 36,000  Level FlightAware
11:22 62.6740 14.7960 288° West 388 447 36,000  Level FlightAware
11:23 62.6940 14.6600 288° West 388 447 36,000  Level FlightAware
11:23 62.7140 14.5190 287° West 389 448 36,000  Level FlightAware
11:24 62.7330 14.3930 288° West 389 448 36,000  Level FlightAware
11:25 62.7510 14.2650 287° West 387 445 36,000  Level FlightAware
11:25 62.7680 14.1450 287° West 384 442 36,000  Level FlightAware
11:26 62.7820 14.0460 287° West 383 441 36,000  Level FlightAware
11:26 62.8010 13.9130 287° West 378 435 36,000  Level FlightAware
11:27 62.8190 13.7830 287° West 375 432 36,000  Level FlightAware
11:27 62.8370 13.6540 287° West 374 430 36,000  Level FlightAware
11:28 62.8540 13.5310 287° West 373 429 36,000  Level FlightAware
11:29 62.8730 13.3930 287° West 375 432 36,000  Level FlightAware
11:29 62.8900 13.2630 286° West 375 432 36,000  Level FlightAware
11:30 62.9040 13.1620 287° West 376 433 36,000  Level FlightAware
11:30 62.9240 13.0150 287° West 375 432 36,000  Level FlightAware
11:31 62.9400 12.8890 286° West 377 434 36,000  Level FlightAware
11:31 62.9570 12.7590 286° West 378 435 36,000  Level FlightAware
11:32 62.9750 12.6240 286° West 381 438 36,000  Level FlightAware
11:33 62.9920 12.4890 286° West 383 441 36,000  Level FlightAware
11:33 63.0080 12.3700 287° West 381 438 36,000  Level FlightAware
11:34 63.0240 12.2450 286° West 385 443 36,000  Level FlightAware
11:34 63.0420 12.0990 285° West 385 443 36,000  Level FlightAware
11:35 63.0590 11.9630 285° West 382 440 36,000  Level FlightAware
11:35 63.0740 11.8440 286° West 383 441 36,000  Level FlightAware
11:36 63.0900 11.7100 285° West 381 438 36,000  Level FlightAware
11:37 63.1050 11.5900 285° West 380 437 36,000  Level FlightAware
11:37 63.1210 11.4570 285° West 381 438 36,000  Level FlightAware
11:38 63.1370 11.3200 285° West 381 438 36,000  Level FlightAware
11:38 63.1530 11.1830 285° West 381 438 36,000  Level FlightAware
11:39 63.1690 11.0500 285° West 380 437 36,000  Level FlightAware
11:40 63.1830 10.9290 284° West 377 434 36,000  Level FlightAware
11:40 63.1990 10.7940 285° West 374 430 36,000  Level FlightAware
11:41 63.2120 10.6750 284° West 373 429 36,000  Level FlightAware
11:41 63.2290 10.5240 284° West 371 427 36,000  Level FlightAware
11:42 63.2430 10.4040 285° West 372 428 36,000  Level FlightAware
11:42 63.2560 10.2850 284° West 372 428 36,000  Level FlightAware
11:43 63.2710 10.1480 284° West 371 427 36,000  Level FlightAware
11:44 63.2850 10.0230 284° West 371 427 36,000  Level FlightAware
11:44 63.3000 9.8850 284° West 373 429 36,000  Level FlightAware
11:45 63.3140 9.7540 283° West 373 429 36,000  Level FlightAware
11:45 63.3280 9.6250 284° West 370 426 36,000  Level FlightAware
11:46 63.3420 9.4900 283° West 371 427 36,000  Level FlightAware
11:47 63.3550 9.3610 283° West 373 429 36,000  Level FlightAware
11:47 63.3680 9.2380 283° West 376 433 36,000  Level FlightAware
11:48 63.3820 9.0980 283° West 376 433 36,000  Level FlightAware
11:48 63.3950 8.9750 283° West 375 432 36,000  Level FlightAware
11:49 63.4090 8.8380 283° West 374 430 36,000  Level FlightAware
11:49 63.4220 8.7050 282° West 374 430 36,000  Level FlightAware
11:50 63.4340 8.5830 282° West 374 430 36,000  Level FlightAware
11:51 63.4470 8.4480 282° West 376 433 36,000  Level FlightAware
11:51 63.4590 8.3150 281° West 376 433 36,000  Level FlightAware
11:52 63.4730 8.1780 283° West 378 435 36,000  Level FlightAware
11:52 63.4850 8.0450 281° West 379 436 36,000  Level FlightAware
11:53 63.4980 7.9020 282° West 380 437 36,000  Level FlightAware
11:54 63.5100 7.7770 282° West 378 435 36,000  Level FlightAware
11:54 63.5220 7.6480 282° West 378 435 36,000  Level FlightAware
11:55 63.5340 7.5140 281° West 376 433 36,000  Level FlightAware
11:55 63.5460 7.3800 281° West 376 433 36,000  Level FlightAware
11:56 63.5570 7.2480 281° West 376 433 36,000  Level FlightAware
11:57 63.5710 7.0910 281° West 377 434 36,000  Level FlightAware
11:57 63.5820 6.9580 281° West 378 435 36,000  Level FlightAware
11:58 63.5940 6.8230 281° West 379 436 36,000  Level FlightAware
11:58 63.6070 6.6690 281° West 380 437 36,000  Level FlightAware
11:59 63.6170 6.5420 280° West 380 437 36,000  Level FlightAware
12:00 63.6290 6.3980 281° West 380 437 36,000  Level FlightAware
12:00 63.6390 6.2720 280° West 380 437 36,000  Level FlightAware
12:01 63.6500 6.1310 280° West 380 437 36,000  Level FlightAware
12:01 63.6610 6.0030 281° West 379 436 36,000  Level FlightAware
12:02 63.6720 5.8540 280° West 378 435 36,000  Level FlightAware
12:02 63.6820 5.7210 280° West 377 434 36,000  Level FlightAware
12:03 63.6920 5.5850 279° West 377 434 36,000  Level FlightAware
12:04 63.7020 5.4560 280° West 377 434 36,000  Level FlightAware
12:04 63.7120 5.3270 280° West 377 434 36,000  Level FlightAware
12:05 63.7210 5.1940 279° West 377 434 36,000  Level FlightAware
12:05 63.7300 5.0690 279° West 378 435 36,000  Level FlightAware
12:06 63.7390 4.9500 280° West 378 435 36,000  Level FlightAware
12:06 63.7490 4.8050 279° West 379 436 36,000  Level FlightAware
12:07 63.7580 4.6690 279° West 379 436 36,000  Level FlightAware
12:08 63.7680 4.5330 280° West 380 437 36,000  Level FlightAware
12:08 63.7770 4.3900 278° West 379 436 36,000  Level FlightAware
12:09 63.7860 4.2580 279° West 378 435 36,000  Level FlightAware
12:09 63.7940 4.1290 278° West 376 433 36,000  Level FlightAware
12:10 63.8030 3.9930 279° West 378 435 36,000  Level FlightAware
12:11 63.8120 3.8480 278° West 379 436 36,000  Level FlightAware
12:11 63.8180 3.7460 278° West 380 437 36,000  Level FlightAware
12:12 63.8280 3.5860 278° West 381 438 36,000  Level FlightAware
12:12 63.8370 3.4410 278° West 382 440 36,000  Level FlightAware
12:13 63.8460 3.2850 278° West 382 440 36,000  Level FlightAware
12:13 63.8530 3.1650 278° West 383 441 36,000  Level FlightAware
12:14 63.8610 3.0220 277° West 384 442 36,000  Level FlightAware
12:15 63.8690 2.8890 278° West 384 442 36,000  Level FlightAware
12:15 63.8760 2.7540 277° West 384 442 36,000  Level FlightAware
12:16 63.8840 2.6040 277° West 383 441 36,000  Level FlightAware
12:16 63.8920 2.4510 277° West 383 441 36,000  Level FlightAware
12:17 63.8990 2.3300 278° West 383 441 36,000  Level FlightAware
12:17 63.9060 2.1830 276° West 383 441 36,000  Level FlightAware
12:18 63.9160 1.9880 277° West 386 444 36,000  Level FlightAware
12:19 63.9220 1.8510 276° West 386 444 36,000  Level FlightAware
12:20 63.9320 1.6610 277° West 388 447 36,000  Level FlightAware
12:20 63.9380 1.5330 276° West 388 447 36,000  Level FlightAware
12:21 63.9460 1.3480 276° West 388 447 36,000  Level FlightAware
12:22 63.9520 1.2240 276° West 388 447 36,000  Level FlightAware
12:22 63.9570 1.1060 276° West 388 447 36,000  Level FlightAware
12:23 63.9650 0.9100 275° West 389 448 36,000  Level FlightAware
12:23 63.9720 0.7370 275° West 387 445 36,000  Level FlightAware
12:24 63.9770 0.6230 276° West 387 445 36,000  Level FlightAware
12:25 63.9810 0.4980 274° West 387 445 36,000  Level FlightAware
12:25 63.9890 0.3090 276° West 386 444 36,000  Level FlightAware
12:26 63.9940 0.1680 275° West 386 444 36,000  Level FlightAware
12:27 64.0010 -0.0080 275° West 388 447 36,000  Level FlightAware
12:27 64.0050 -0.1330 274° West 387 445 36,000  Level FlightAware
12:28 64.0100 -0.2770 275° West 388 447 36,000  Level FlightAware
12:28 64.0140 -0.4190 274° West 388 447 36,000  Level FlightAware
12:29 64.0190 -0.5910 274° West 390 449 36,000  Level FlightAware
12:30 64.0240 -0.7350 275° West 390 449 36,000  Level FlightAware
12:30 64.0280 -0.8850 274° West 391 450 36,000  Level FlightAware
12:31 64.0320 -1.0080 274° West 392 451 36,000  Level FlightAware
12:31 64.0360 -1.1770 273° West 393 452 36,000  Level FlightAware
12:32 64.0390 -1.2780 274° West 392 451 36,000  Level FlightAware
12:32 64.0420 -1.4110 273° West 392 451 36,000  Level FlightAware
12:33 64.0450 -1.5380 273° West 392 451 36,000  Level FlightAware
12:34 64.0500 -1.7530 273° West 395 455 36,000  Level FlightAware
12:34 64.0530 -1.8960 273° West 394 453 36,000  Level FlightAware
12:35 64.0560 -2.0190 273° West 394 453 36,000  Level FlightAware
12:35 64.0590 -2.1850 272° West 395 455 36,000  Level FlightAware
12:36 64.0620 -2.3260 273° West 395 455 36,000  Level FlightAware
12:36 64.0640 -2.4590 272° West 396 456 36,000  Level FlightAware
12:37 64.0670 -2.6180 273° West 395 455 36,000  Level FlightAware
12:38 64.0690 -2.7530 272° West 395 455 36,000  Level FlightAware
12:38 64.0710 -2.8840 272° West 395 455 36,000  Level FlightAware
12:39 64.0730 -3.0090 272° West 395 455 36,000  Level FlightAware
12:40 64.0760 -3.2650 272° West 397 457 36,000  Level FlightAware
12:40 64.0770 -3.3870 271° West 399 459 36,000  Level FlightAware
12:41 64.0790 -3.5480 272° West 401 461 36,000  Level FlightAware
12:41 64.0800 -3.7020 271° West 403 464 36,000  Level FlightAware
12:42 64.0820 -3.8570 272° West 404 465 36,000  Level FlightAware
12:43 64.0830 -3.9990 271° West 404 465 36,000  Level FlightAware
12:43 64.0840 -4.1430 271° West 404 465 36,000  Level FlightAware
12:44 64.0850 -4.2720 271° West 405 466 36,000  Level FlightAware
12:44 64.0850 -4.4060 270° West 406 467 36,000  Level FlightAware
12:45 64.0860 -4.5740 271° West 408 470 36,000  Level FlightAware
12:45 64.0860 -4.7170 270° West 409 471 36,000  Level FlightAware
12:46 64.0860 -4.8650 270° West 410 472 36,000  Level FlightAware
12:47 64.0860 -5.0290 270° West 409 471 36,000  Level FlightAware
12:47 64.0860 -5.2370 270° West 409 471 36,000  Level FlightAware
12:48 64.0860 -5.3900 270° West 410 472 36,000  Level FlightAware
12:49 64.0850 -5.5290 269° West 411 473 36,000  Level FlightAware
12:49 64.0850 -5.6840 270° West 411 473 36,000  Level FlightAware
12:50 64.0840 -5.8400 269° West 411 473 36,000  Level FlightAware
12:50 64.0830 -5.9970 269° West 411 473 36,000  Level FlightAware
12:51 64.0820 -6.1350 269° West 413 475 36,000  Level FlightAware
12:51 64.0810 -6.2890 269° West 415 478 36,000  Level FlightAware
12:52 64.0790 -6.4430 268° West 417 480 36,000  Level FlightAware
12:53 64.0780 -6.5980 269° West 418 481 36,000  Level FlightAware
12:53 64.0760 -6.7330 268° West 418 481 36,000  Level FlightAware
12:54 64.0740 -6.8910 268° West 419 482 36,000  Level FlightAware
12:54 64.0720 -7.0500 268° West 420 483 36,000  Level FlightAware
12:55 64.0690 -7.2160 268° West 420 483 36,000  Level FlightAware
12:56 64.0670 -7.3690 268° West 422 486 36,000  Level FlightAware
12:56 64.0650 -7.5120 268° West 427 491 36,000  Level FlightAware
12:57 64.0610 -7.6680 267° West 429 494 36,000  Level FlightAware
12:57 64.0580 -7.8150 267° West 429 494 36,000  Level FlightAware
12:58 64.0540 -8.0650 268° West 419 482 36,000  Level FlightAware
12:59 64.0500 -8.2040 266° West 419 482 36,000  Level FlightAware
12:59 64.0470 -8.3400 267° West 419 482 36,000  Level FlightAware
13:00 64.0440 -8.4750 267° West 419 482 36,000  Level FlightAware
13:01 64.0410 -8.6030 267° West 419 482 36,000  Level FlightAware
13:01 64.0380 -8.7420 267° West 419 482 36,000  Level FlightAware
13:02 64.0350 -8.8810 267° West 419 482 36,000  Level FlightAware
13:02 64.0320 -9.0160 267° West 419 482 36,000  Level FlightAware
13:03 64.0280 -9.1550 266° West 419 482 36,000  Level FlightAware
13:04 64.0260 -9.2830 268° West 419 482 36,000  Level FlightAware
13:04 64.0220 -9.4180 266° West 419 482 36,000  Level FlightAware
13:05 64.0190 -9.5460 267° West 419 482 36,000  Level FlightAware
13:05 64.0160 -9.6740 267° West 419 482 36,000  Level FlightAware
13:06 63.9930 -10.1220 264° West 421 484 36,000  Level FlightAware
13:06 63.9840 -10.2620 262° West 422 486 36,000  Level FlightAware
13:07 63.9730 -10.4190 261° West 422 486 36,000  Level FlightAware
13:08 63.9630 -10.5720 262° West 423 487 36,000  Level FlightAware
13:08 63.9540 -10.7160 262° West 425 489 36,000  Level FlightAware
13:09 63.9430 -10.8680 261° West 426 490 36,000  Level FlightAware
13:09 63.9310 -11.0440 261° West 424 488 36,000  Level FlightAware
13:10 63.9210 -11.1810 261° West 423 487 36,000  Level FlightAware
13:11 63.9110 -11.3240 261° West 420 483 36,000  Level FlightAware
13:11 63.8990 -11.4940 261° West 412 474 36,000  Level FlightAware
13:12 63.8880 -11.6400 260° West 410 472 36,000  Level FlightAware
13:12 63.8770 -11.7900 261° West 409 471 36,000  Level FlightAware
13:13 63.8660 -11.9340 260° West 411 473 36,000  Level FlightAware
13:14 63.8540 -12.0900 260° West 411 473 36,000  Level FlightAware
13:14 63.8430 -12.2280 260° West 410 472 36,000  Level FlightAware
13:15 63.8320 -12.3630 260° West 410 472 36,000  Level FlightAware
13:15 63.8190 -12.5280 260° West 409 471 36,000  Level FlightAware
13:16 63.8080 -12.6650 260° West 411 473 36,000 60 Level FlightAware
13:16 63.7950 -12.8180 259° West 414 476 36,100 300 Climbing FlightAware
13:17 63.7830 -12.9680 260° West 417 480 36,400 480 Climbing FlightAware
13:18 63.7700 -13.1210 259° West 419 482 36,700 420 Climbing FlightAware
13:18 63.7580 -13.2520 258° West 413 475 36,900 240 Climbing FlightAware
13:19 63.7440 -13.4130 259° West 414 476 37,000 60 Climbing FlightAware
13:19 63.7310 -13.5650 259° West 413 475 37,000  Level FlightAware
13:20 63.7180 -13.7150 259° West 414 476 37,000  Level FlightAware
13:20 63.7050 -13.8580 258° West 413 475 37,000  Level FlightAware
13:21 63.6910 -14.0110 258° West 412 474 37,000  Level FlightAware
13:22 63.6790 -14.1420 258° West 412 474 37,000  Level FlightAware
13:22 63.6660 -14.2730 257° West 414 476 37,000  Level FlightAware
13:23 63.6550 -14.3990 259° West 416 479 37,000  Level FlightAware
13:23 63.6390 -14.5610 258° West 418 481 37,000  Level FlightAware
13:24 63.6240 -14.7140 258° West 421 484 37,000  Level FlightAware
13:24 63.6100 -14.8650 258° West 421 484 37,000  Level FlightAware
13:25 63.5960 -15.0030 257° West 422 486 37,000  Level FlightAware
13:26 63.5810 -15.1560 258° West 421 484 37,000  Level FlightAware
13:26 63.5640 -15.3200 257° West 421 484 37,000  Level FlightAware
13:27 63.5490 -15.4640 257° West 421 484 37,000  Level FlightAware
13:27 63.5340 -15.6070 257° West 419 482 37,000  Level FlightAware
13:28 63.5190 -15.7510 257° West 418 481 37,000  Level FlightAware
13:29 63.5030 -15.9020 257° West 418 481 37,000  Level FlightAware
13:29 63.4880 -16.0410 256° West 417 480 37,000  Level FlightAware
13:30 63.4730 -16.1870 257° West 416 479 37,000  Level FlightAware
13:30 63.4570 -16.3340 256° West 415 478 37,000  Level FlightAware
13:31 63.4390 -16.4910 256° West 415 478 37,000  Level FlightAware
13:31 63.4240 -16.6250 256° West 414 476 37,000  Level FlightAware
13:32 63.4060 -16.7830 256° West 413 475 37,000  Level FlightAware
13:33 63.3900 -16.9290 256° West 413 475 37,000  Level FlightAware
13:33 63.3750 -17.0560 255° West 414 476 37,000  Level FlightAware
13:34 63.3570 -17.2130 256° West 414 476 37,000  Level FlightAware
13:34 63.3390 -17.3650 255° West 414 476 37,000  Level FlightAware
13:35 63.3240 -17.4930 255° West 414 476 37,000  Level FlightAware
13:36 63.3060 -17.6410 255° West 415 478 37,000  Level FlightAware
13:36 63.2880 -17.7900 255° West 416 479 37,000  Level FlightAware
13:37 63.2720 -17.9230 255° West 415 478 37,000  Level FlightAware
13:37 63.2540 -18.0700 255° West 415 478 37,000  Level FlightAware
13:38 63.2350 -18.2230 255° West 417 480 37,000  Level FlightAware
13:38 63.2180 -18.3620 255° West 417 480 37,000  Level FlightAware
13:39 63.1990 -18.5110 254° West 416 479 37,000  Level FlightAware
13:40 63.1820 -18.6430 254° West 416 479 37,000  Level FlightAware
13:40 63.1640 -18.7800 254° West 418 481 37,000  Level FlightAware
13:41 63.1450 -18.9310 254° West 419 482 37,000  Level FlightAware
13:41 63.1230 -19.0920 253° West 420 483 37,000  Level FlightAware
13:42 63.1060 -19.2250 254° West 419 482 37,000  Level FlightAware
13:43 63.0860 -19.3720 253° West 420 483 37,000  Level FlightAware
13:43 63.0690 -19.5030 254° West 421 484 37,000  Level FlightAware
13:44 63.0500 -19.6420 253° West 422 486 37,000  Level FlightAware
13:44 63.0280 -19.7970 253° West 423 487 37,000  Level FlightAware
13:45 63.0090 -19.9400 254° West 423 487 37,000  Level FlightAware
13:46 62.9940 -20.0990 258° West 427 491 37,000  Level FlightAware
13:46 62.9850 -20.2450 262° West 426 490 37,000  Level FlightAware
13:47 62.9760 -20.3850 262° West 426 490 37,000  Level FlightAware
13:47 62.9660 -20.5300 261° West 425 489 37,000  Level FlightAware
13:48 62.9560 -20.6840 262° West 423 487 37,000  Level FlightAware
13:48 62.9460 -20.8360 262° West 422 486 37,000  Level FlightAware
13:49 62.9370 -20.9710 262° West 419 482 37,000  Level FlightAware
13:50 62.9260 -21.1240 261° West 417 480 37,000  Level FlightAware
13:50 62.9160 -21.2750 262° West 417 480 37,000  Level FlightAware
13:51 62.9040 -21.4310 260° West 417 480 37,000  Level FlightAware
13:51 62.8930 -21.5890 261° West 416 479 37,000  Level FlightAware
13:52 62.8830 -21.7260 261° West 414 476 37,000  Level FlightAware
13:53 62.8710 -21.8750 260° West 412 474 37,000  Level FlightAware
13:53 62.8590 -22.0320 261° West 412 474 37,000  Level FlightAware
13:54 62.8500 -22.1530 261° West 411 473 37,000  Level FlightAware
13:54 62.8380 -22.3130 261° West 412 474 37,000  Level FlightAware
13:55 62.8270 -22.4500 260° West 413 475 37,000  Level FlightAware
13:56 62.8150 -22.5920 260° West 415 478 37,000  Level FlightAware
13:56 62.8030 -22.7390 260° West 415 478 37,000  Level FlightAware
13:57 62.7900 -22.8930 260° West 416 479 37,000  Level FlightAware
13:57 62.7810 -23.0130 261° West 416 479 37,000  Level FlightAware
13:58 62.7670 -23.1720 259° West 417 480 37,000  Level FlightAware
13:58 62.7540 -23.3270 260° West 417 480 37,000  Level FlightAware
13:59 62.7420 -23.4610 259° West 417 480 37,000  Level FlightAware
14:00 62.7300 -23.5990 259° West 417 480 37,000  Level FlightAware
14:00 62.7160 -23.7490 259° West 416 479 37,000  Level FlightAware
14:01 62.7030 -23.8950 259° West 415 478 37,000  Level FlightAware
14:01 62.6910 -24.0290 259° West 416 479 37,000  Level FlightAware
14:02 62.6770 -24.1840 259° West 416 479 37,000  Level FlightAware
14:03 62.6630 -24.3300 258° West 417 480 37,000  Level FlightAware
14:03 62.6490 -24.4790 259° West 417 480 37,000  Level FlightAware
14:04 62.6360 -24.6190 259° West 416 479 37,000  Level FlightAware
14:04 62.6210 -24.7630 257° West 415 478 37,000  Level FlightAware
14:05 62.6090 -24.8920 259° West 415 478 37,000  Level FlightAware
14:05 62.5940 -25.0410 258° West 413 475 37,000  Level FlightAware
14:06 62.5800 -25.1850 258° West 413 475 37,000  Level FlightAware
14:07 62.5650 -25.3320 258° West 414 476 37,000  Level FlightAware
14:07 62.5500 -25.4780 257° West 417 480 37,000  Level FlightAware
14:08 62.5330 -25.6350 257° West 416 479 37,000  Level FlightAware
14:08 62.5180 -25.7760 257° West 416 479 37,000  Level FlightAware
14:09 62.5030 -25.9180 257° West 417 480 37,000  Level FlightAware
14:10 62.4910 -26.0310 257° West 418 481 37,000  Level FlightAware
14:10 62.4720 -26.2090 257° West 417 480 37,000  Level FlightAware
14:11 62.4580 -26.3370 257° West 417 480 37,000  Level FlightAware
14:11 62.4490 -26.4170 256° West 417 480 37,000  Level FlightAware
14:12 62.4250 -26.6350 257° West 417 480 37,000 180 Level FlightAware
14:13 62.4110 -26.7560 256° West 417 480 37,300 420 Climbing FlightAware
14:13 62.3950 -26.8950 256° West 421 484 37,500 360 Climbing FlightAware
14:14 62.3780 -27.0450 256° West 422 486 37,800 360 Climbing FlightAware
14:14 62.3600 -27.2030 256° West 424 488 38,000 120 Climbing FlightAware
14:15 62.3440 -27.3340 255° West 426 490 38,000  Level FlightAware
14:15 62.3280 -27.4750 256° West 424 488 38,000  Level FlightAware
14:16 62.3090 -27.6310 255° West 422 486 38,000  Level FlightAware
14:17 62.2930 -27.7610 255° West 421 484 38,000  Level FlightAware
14:17 62.2740 -27.9160 255° West 421 484 38,000  Level FlightAware
14:18 62.2590 -28.0420 256° West 420 483 38,000  Level FlightAware
14:18 62.2410 -28.1860 255° West 420 483 38,000  Level FlightAware
14:19 62.2240 -28.3170 254° West 422 486 38,000  Level FlightAware
14:20 62.2060 -28.4620 255° West 423 487 38,000  Level FlightAware
14:20 62.1870 -28.6090 255° West 424 488 38,000  Level FlightAware
14:21 62.1600 -28.8160 254° West 424 488 38,000  Level FlightAware
14:22 62.1330 -29.0250 255° West 429 494 38,000  Level FlightAware
14:23 62.1090 -29.2040 254° West 431 496 38,000  Level FlightAware
14:23 62.0800 -29.4220 254° West 431 496 38,000  Level FlightAware
14:24 62.0630 -29.5430 253° West 431 496 38,000  Level FlightAware
14:25 62.0440 -29.6770 253° West 431 496 38,000  Level FlightAware
14:25 62.0230 -29.8350 254° West 433 498 38,000  Level FlightAware
14:26 62.0010 -29.9850 253° West 432 497 38,000  Level FlightAware
14:27 61.9710 -30.1390 248° West 432 497 38,000  Level FlightAware
14:27 61.9490 -30.2590 249° West 432 497 38,000  Level FlightAware
14:28 61.9250 -30.3830 248° West 432 497 38,000  Level FlightAware
14:28 61.9020 -30.5030 248° West 432 497 38,000  Level FlightAware
14:29 61.8790 -30.6270 249° West 432 497 38,000  Level FlightAware
14:30 61.8560 -30.7470 248° West 432 497 38,000  Level FlightAware
14:30 61.8340 -30.8610 248° West 432 497 38,000  Level FlightAware
14:31 61.8110 -30.9810 248° West 432 497 38,000  Level FlightAware
14:31 61.7880 -31.1010 248° West 432 497 38,000  Level FlightAware
14:32 61.7640 -31.2270 248° West 432 497 38,000  Level FlightAware
14:33 61.7330 -31.3870 248° West 432 497 38,000  Level FlightAware
14:33 61.7100 -31.5070 248° West 432 497 38,000  Level FlightAware
14:34 61.6870 -31.6260 248° West 432 497 38,000  Level FlightAware
14:35 61.6650 -31.7460 249° West 432 497 38,000  Level FlightAware
14:35 61.6420 -31.8650 248° West 432 497 38,000  Level FlightAware
14:36 61.6190 -31.9850 248° West 432 497 38,000  Level FlightAware
14:38 61.5343 -32.3642 245° Southwest  Level Estimated
14:39 61.4855 -32.5799 245° Southwest  Level Estimated
14:40 61.4363 -32.7950 245° Southwest  Level Estimated
14:41 61.3868 -33.0094 244° Southwest  Level Estimated
14:42 61.3369 -33.2231 244° Southwest  Level Estimated
14:43 61.2867 -33.4361 244° Southwest  Level Estimated
14:44 61.2361 -33.6485 244° Southwest  Level Estimated
14:45 61.1853 -33.8601 244° Southwest  Level Estimated
14:46 61.1341 -34.0711 243° Southwest  Level Estimated
14:47 61.0826 -34.2814 243° Southwest  Level Estimated
14:48 61.0307 -34.4910 243° Southwest  Level Estimated
14:49 60.9785 -34.7000 243° Southwest  Level Estimated
14:50 60.9260 -34.9082 243° Southwest  Level Estimated
14:51 60.8732 -35.1157 242° Southwest  Level Estimated
14:52 60.8201 -35.3226 242° Southwest  Level Estimated
14:53 60.7667 -35.5288 242° Southwest  Level Estimated
14:54 60.7129 -35.7342 242° Southwest  Level Estimated
14:55 60.6588 -35.9390 242° Southwest  Level Estimated
14:56 60.6044 -36.1432 242° Southwest  Level Estimated
14:57 60.5497 -36.3466 241° Southwest  Level Estimated
14:58 60.4947 -36.5493 241° Southwest  Level Estimated
14:59 60.4394 -36.7513 241° Southwest  Level Estimated
15:00 60.3838 -36.9527 241° Southwest  Level Estimated
15:01 60.3279 -37.1534 241° Southwest  Level Estimated
15:02 60.2716 -37.3533 241° Southwest  Level Estimated
15:03 60.2151 -37.5526 240° Southwest  Level Estimated
15:04 60.1583 -37.7512 240° Southwest  Level Estimated
15:05 60.1012 -37.9491 240° Southwest  Level Estimated
15:06 60.0438 -38.1464 240° Southwest  Level Estimated
15:07 59.9861 -38.3429 240° Southwest  Level Estimated
15:08 59.9281 -38.5387 239° Southwest  Level Estimated
15:09 59.8698 -38.7339 239° Southwest  Level Estimated
15:10 59.8112 -38.9284 239° Southwest  Level Estimated
15:11 59.7524 -39.1222 239° Southwest  Level Estimated
15:12 59.6932 -39.3153 239° Southwest  Level Estimated
15:13 59.6338 -39.5078 239° Southwest  Level Estimated
15:14 59.5741 -39.6995 238° Southwest  Level Estimated
15:15 59.5141 -39.8906 238° Southwest  Level Estimated
15:16 59.4538 -40.0810 238° Southwest  Level Estimated
15:17 59.3933 -40.2707 238° Southwest  Level Estimated
15:18 59.3325 -40.4597 238° Southwest  Level Estimated
15:19 59.2714 -40.6481 238° Southwest  Level Estimated
15:20 59.2100 -40.8357 237° Southwest  Level Estimated
15:21 59.1484 -41.0228 237° Southwest  Level Estimated
15:22 59.0865 -41.2091 237° Southwest  Level Estimated
15:23 59.0243 -41.3947 237° Southwest  Level Estimated
15:24 58.9619 -41.5797 237° Southwest  Level Estimated
15:25 58.8992 -41.7640 237° Southwest  Level Estimated
15:26 58.8363 -41.9477 237° Southwest  Level Estimated
15:27 58.7731 -42.1307 236° Southwest  Level Estimated
15:28 58.7096 -42.3130 236° Southwest  Level Estimated
15:29 58.6459 -42.4947 236° Southwest  Level Estimated
15:30 58.5819 -42.6756 236° Southwest  Level Estimated
15:31 58.5177 -42.8560 236° Southwest  Level Estimated
15:32 58.4532 -43.0356 236° Southwest  Level Estimated
15:33 58.3885 -43.2146 235° Southwest  Level Estimated
15:34 58.3235 -43.3930 235° Southwest  Level Estimated
15:35 58.2583 -43.5707 235° Southwest  Level Estimated
15:36 58.1928 -43.7477 235° Southwest  Level Estimated
15:37 58.1271 -43.9241 235° Southwest  Level Estimated
15:38 58.0611 -44.0999 235° Southwest  Level Estimated
15:39 57.9949 -44.2750 235° Southwest  Level Estimated
15:40 57.9285 -44.4494 234° Southwest  Level Estimated
15:41 57.8618 -44.6232 234° Southwest  Level Estimated
15:42 57.7949 -44.7963 234° Southwest  Level Estimated
15:43 57.7277 -44.9689 234° Southwest  Level Estimated
15:44 57.6603 -45.1407 234° Southwest  Level Estimated
15:45 57.5927 -45.3120 234° Southwest  Level Estimated
15:46 57.5248 -45.4826 234° Southwest  Level Estimated
15:47 57.4568 -45.6525 233° Southwest  Level Estimated
15:48 57.3885 -45.8218 233° Southwest  Level Estimated
15:49 57.3199 -45.9905 233° Southwest  Level Estimated
15:50 57.2512 -46.1586 233° Southwest  Level Estimated
15:51 57.1822 -46.3260 233° Southwest  Level Estimated
15:52 57.1130 -46.4929 233° Southwest  Level Estimated
15:53 57.0436 -46.6591 233° Southwest  Level Estimated
15:54 56.9739 -46.8246 232° Southwest  Level Estimated
15:55 56.9041 -46.9896 232° Southwest  Level Estimated
15:56 56.8340 -47.1539 232° Southwest  Level Estimated
15:57 56.7637 -47.3176 232° Southwest  Level Estimated
15:58 56.6932 -47.4808 232° Southwest  Level Estimated
15:59 56.6225 -47.6432 232° Southwest  Level Estimated
16:00 56.5515 -47.8051 232° Southwest  Level Estimated
16:01 56.4804 -47.9664 231° Southwest  Level Estimated
16:02 56.4090 -48.1271 231° Southwest  Level Estimated
16:03 56.3375 -48.2872 231° Southwest  Level Estimated
16:04 56.2657 -48.4467 231° Southwest  Level Estimated
16:05 56.1938 -48.6055 231° Southwest  Level Estimated
16:06 56.1216 -48.7638 231° Southwest  Level Estimated
16:07 56.0492 -48.9215 231° Southwest  Level Estimated
16:08 55.9767 -49.0786 230° Southwest  Level Estimated
16:09 55.9039 -49.2351 230° Southwest  Level Estimated
16:10 55.8309 -49.3910 230° Southwest  Level Estimated
16:11 55.7578 -49.5464 230° Southwest  Level Estimated
16:12 55.6844 -49.7011 230° Southwest  Level Estimated
16:13 55.6109 -49.8553 230° Southwest  Level Estimated
16:14 55.5371 -50.0089 230° Southwest  Level Estimated
16:15 55.4632 -50.1619 230° Southwest  Level Estimated
16:16 55.3891 -50.3144 229° Southwest  Level Estimated
16:17 55.3148 -50.4662 229° Southwest  Level Estimated
16:18 55.2403 -50.6175 229° Southwest  Level Estimated
16:19 55.1656 -50.7683 229° Southwest  Level Estimated
16:20 55.0907 -50.9184 229° Southwest  Level Estimated
16:21 55.0157 -51.0681 229° Southwest  Level Estimated
16:22 54.9404 -51.2171 229° Southwest  Level Estimated
16:23 54.8650 -51.3656 229° Southwest  Level Estimated
16:24 54.7894 -51.5135 228° Southwest  Level Estimated
16:25 54.7136 -51.6609 228° Southwest  Level Estimated
16:26 54.6376 -51.8078 228° Southwest  Level Estimated
16:27 54.5615 -51.9541 228° Southwest  Level Estimated
16:28 54.4852 -52.0998 228° Southwest  Level Estimated
16:29 54.4087 -52.2450 228° Southwest  Level Estimated
16:29 54.1167 -54.3667 227° Southwest 430 495 38,000  Level Moncton Center
16:30 54.3321 -52.3897 228° Southwest  Level Estimated
16:30 54.0500 -54.5333 236° Southwest 430 495 38,000  Level Moncton Center
16:31 54.2552 -52.5338 228° Southwest  Level Estimated
16:31 53.9667 -54.7000 230° Southwest 430 495 38,000  Level Moncton Center
16:32 54.1782 -52.6774 228° Southwest  Level Estimated
16:32 53.8833 -54.8500 227° Southwest 440 506 38,000  Level Moncton Center
16:33 54.1011 -52.8204 227° Southwest  Level Estimated
16:33 53.8167 -55.0167 236° Southwest 430 495 38,000  Level Moncton Center
16:34 54.0237 -52.9629 227° Southwest  Level Estimated
16:34 53.7667 -55.2000 245° Southwest 420 483 38,000  Level Moncton Center
16:35 53.6500 -55.3000 207° Southwest 440 506 38,000  Level Moncton Center
16:36 53.5333 -55.3833 203° Southwest 470 541 38,000  Level Moncton Center
16:37 53.4167 -55.4667 203° Southwest 470 541 38,000  Level Moncton Center
16:38 53.2833 -55.5500 200° South 470 541 38,000 -480 Level Gander Center
16:40 53.0500 -55.7000 201° Southwest 480 552 36,700 -660 Descending Moncton Center
16:41 52.9167 -55.7833 201° Southwest 480 552 36,100 -360 Descending Moncton Center
16:42 52.7833 -55.8333 193° South 470 541 36,000 -60 Descending Moncton Center
16:43 52.6833 -55.9167 207° Southwest 480 552 36,000  Level Moncton Center
16:44 52.5500 -56.0000 201° Southwest 470 541 36,000  Level Moncton Center
16:46 52.4108 -56.0876 201° Southwest  Level FlightAware Approximate
16:47 52.1833 -56.2333 201° Southwest 460 529 36,000  Level Gander Center
16:48 52.0667 -56.3000 199° South 470 541 36,000  Level Moncton Center
16:49 51.9333 -56.3833 201° Southwest 470 541 36,000  Level Moncton Center
16:50 51.8167 -56.4500 199° South 480 552 36,000  Level Moncton Center
16:51 51.7000 -56.5333 204° Southwest 470 541 36,000  Level Moncton Center
16:52 51.5833 -56.6000 200° South 470 541 36,000  Level Moncton Center
16:59 50.7350 -57.1450 200° South 488 562 36,000  Level FlightAware
16:59 50.6600 -57.1880 200° South 490 564 36,000  Level FlightAware
17:00 50.6010 -57.2220 200° South 490 564 36,000  Level FlightAware
17:00 50.5240 -57.2650 200° South 489 563 36,000  Level FlightAware
17:01 50.4460 -57.3100 200° South 488 562 36,000  Level FlightAware
17:01 50.3670 -57.3550 200° South 487 560 36,000  Level FlightAware
17:02 50.2890 -57.3990 200° South 486 559 36,000  Level FlightAware
17:03 50.2150 -57.4400 200° South 487 560 36,000  Level FlightAware
17:03 50.1410 -57.4820 200° South 487 560 36,000  Level FlightAware
17:04 50.0660 -57.5230 199° South 487 560 36,000  Level FlightAware
17:04 50.0020 -57.5590 200° South 488 562 36,000  Level FlightAware
17:05 49.9200 -57.6050 200° South 490 564 36,000  Level FlightAware
17:06 49.8440 -57.6460 199° South 490 564 36,000  Level FlightAware
17:06 49.7833 -57.6500 192° South 490 564 36,000  Level Gander Center
17:06 49.7680 -57.6880 200° South 490 564 36,000  Level FlightAware
17:07 49.6970 -57.7270 200° South 489 563 36,000  Level FlightAware
17:07 49.6300 -57.7640 200° South 488 562 36,000  Level FlightAware
17:08 49.5360 -57.8150 199° South 489 563 36,000  Level FlightAware
17:11 49.2997 -57.8945 192° South  Level FlightAware Approximate
17:11 49.0890 -58.0560 192° South 485 558 36,000  Level FlightAware
17:12 49.0180 -58.0940 199° South 486 559 36,000  Level FlightAware
17:13 48.9410 -58.1350 199° South 487 560 36,000  Level FlightAware
17:13 48.8660 -58.1750 199° South 488 562 36,000  Level FlightAware
17:14 48.7920 -58.2140 199° South 488 562 36,000  Level FlightAware
17:14 48.7190 -58.2520 199° South 488 562 36,000  Level FlightAware
17:15 48.6440 -58.2910 199° South 487 560 36,000  Level FlightAware
17:16 48.5470 -58.3420 199° South 486 559 36,000  Level FlightAware
17:16 48.4890 -58.3720 199° South 486 559 36,000  Level FlightAware
17:17 48.3990 -58.4190 199° South 486 559 36,000  Level FlightAware
17:18 48.3140 -58.4630 199° South 485 558 36,000  Level FlightAware
17:18 48.2530 -58.4950 199° South 485 558 36,000  Level FlightAware
17:19 48.1730 -58.5360 199° South 485 558 36,000  Level FlightAware
17:19 48.0820 -58.5810 198° South 484 557 36,000  Level FlightAware
17:20 47.9920 -58.6280 199° South 483 556 36,000  Level FlightAware
17:21 47.9150 -58.6680 199° South 481 554 36,000  Level FlightAware
17:22 47.8030 -58.7230 198° South 481 554 36,000  Level FlightAware
17:22 47.7370 -58.7550 198° South 481 554 36,000  Level FlightAware
17:23 47.6410 -58.8050 199° South 480 552 36,000  Level FlightAware
17:23 47.5650 -58.8440 199° South 479 551 36,000  Level FlightAware
17:24 47.4990 -58.8780 199° South 478 550 36,000  Level FlightAware
17:25 47.4150 -58.9190 198° South 477 549 36,000  Level FlightAware
17:25 47.3370 -58.9580 199° South 477 549 36,000  Level FlightAware
17:26 47.2710 -58.9910 199° South 476 548 36,000  Level FlightAware
17:26 47.1950 -59.0280 198° South 476 548 36,000  Level FlightAware
17:28 47.0440 -59.1030 199° South 478 550 36,000  Level FlightAware
17:28 46.9760 -59.1360 198° South 479 551 36,000  Level FlightAware
17:29 46.9010 -59.1730 199° South 479 551 36,000  Level FlightAware
17:29 46.8260 -59.2090 198° South 477 549 36,000  Level FlightAware
17:30 46.7620 -59.2400 198° South 477 549 36,000  Level FlightAware
17:31 46.6760 -59.2820 199° South 477 549 36,000  Level FlightAware
17:31 46.6070 -59.3150 198° South 478 550 36,000  Level FlightAware
17:32 46.5330 -59.3510 199° South 479 551 36,000  Level FlightAware
17:32 46.4570 -59.3870 198° South 479 551 36,000  Level FlightAware
17:33 46.3890 -59.4200 199° South 478 550 36,000  Level FlightAware
17:33 46.3180 -59.4540 198° South 479 551 36,000  Level FlightAware
17:34 46.2420 -59.4900 198° South 480 552 36,000  Level FlightAware
17:35 46.1650 -59.5270 198° South 480 552 36,000  Level FlightAware
17:35 46.0970 -59.5590 198° South 480 552 36,000  Level FlightAware
17:36 46.0220 -59.5950 198° South 479 551 36,000  Level FlightAware
17:36 45.9500 -59.6280 198° South 478 550 36,000  Level FlightAware
17:37 45.8730 -59.6640 198° South 479 551 36,000  Level FlightAware
17:38 45.7950 -59.7010 198° South 480 552 36,000  Level FlightAware
17:38 45.7190 -59.7370 198° South 480 552 36,000  Level FlightAware
17:39 45.6430 -59.7720 198° South 478 550 36,000  Level FlightAware
17:39 45.5750 -59.8030 198° South 477 549 36,000  Level FlightAware
17:40 45.5030 -59.8370 198° South 475 547 36,000  Level FlightAware
17:40 45.4290 -59.8710 198° South 474 545 36,000  Level FlightAware
17:41 45.3550 -59.9050 198° South 474 545 36,000  Level FlightAware
17:42 45.2800 -59.9400 198° South 474 545 36,000  Level FlightAware
17:42 45.2120 -59.9710 198° South 474 545 36,000  Level FlightAware
17:43 45.1340 -60.0060 198° South 475 547 36,000  Level FlightAware
17:43 45.0670 -60.0360 198° South 475 547 36,000  Level FlightAware
17:44 44.9900 -60.0710 198° South 473 544 36,000  Level FlightAware
17:45 44.9150 -60.1050 198° South 471 542 36,000  Level FlightAware
17:45 44.8480 -60.1360 198° South 470 541 36,000  Level FlightAware
17:46 44.7720 -60.1700 198° South 469 540 36,000  Level FlightAware
17:46 44.6960 -60.2040 198° South 470 541 36,000  Level FlightAware
17:47 44.6220 -60.2380 198° South 470 541 36,000  Level FlightAware
17:47 44.5570 -60.2670 198° South 469 540 36,000  Level FlightAware
17:48 44.4870 -60.2980 198° South 468 539 36,000  Level FlightAware
17:49 44.4130 -60.3310 198° South 467 537 36,000  Level FlightAware
17:49 44.3310 -60.3660 197° South 465 535 36,000  Level FlightAware
17:50 44.2260 -60.4130 198° South 464 534 36,000  Level FlightAware
17:51 44.1450 -60.4470 197° South 464 534 36,000  Level FlightAware
17:52 44.0860 -60.4720 197° South 464 534 36,000  Level FlightAware
17:52 44.0210 -60.5000 197° South 464 534 36,000  Level FlightAware
17:53 43.9570 -60.5270 197° South 464 534 36,000  Level FlightAware
17:53 43.8940 -60.5540 197° South 464 534 36,000  Level FlightAware
17:54 43.8310 -60.5810 197° South 464 534 36,000  Level FlightAware
17:55 43.6710 -60.6560 199° South 467 537 36,000  Level FlightAware
17:55 43.6040 -60.6840 197° South 467 537 36,000  Level FlightAware
17:56 43.5220 -60.7200 198° South 466 536 36,000  Level FlightAware
17:56 43.4400 -60.7550 197° South 465 535 36,000  Level FlightAware
17:57 43.3670 -60.7870 198° South 463 533 36,000  Level FlightAware
17:58 43.2870 -60.8210 197° South 461 531 36,000  Level FlightAware
17:58 43.2170 -60.8510 197° South 461 531 36,000  Level FlightAware
17:59 43.1210 -60.8910 197° South 461 531 36,000  Level FlightAware
18:00 43.0530 -60.9210 198° South 463 533 36,000  Level FlightAware
18:00 42.9930 -60.9460 197° South 464 534 36,000  Level FlightAware
18:01 42.9130 -60.9790 197° South 464 534 36,000  Level FlightAware
18:01 42.8260 -61.0160 197° South 465 535 36,000  Level FlightAware
18:02 42.7550 -61.0460 197° South 465 535 36,000  Level FlightAware
18:03 42.6540 -61.0880 197° South 465 535 36,000  Level FlightAware
18:03 42.5950 -61.1130 197° South 465 535 36,000  Level FlightAware
18:04 42.5250 -61.1420 197° South 465 535 36,000  Level FlightAware
18:05 42.4490 -61.1860 203° Southwest 463 533 36,000  Level FlightAware
18:05 42.3920 -61.2320 211° Southwest 463 533 36,000  Level FlightAware
18:06 42.3040 -61.3210 217° Southwest 459 528 36,000  Level FlightAware
18:06 42.2670 -61.3840 232° Southwest 453 521 36,000  Level FlightAware
18:07 42.1970 -61.4960 230° Southwest 452 520 36,000  Level FlightAware
18:08 42.1630 -61.5500 230° Southwest 452 520 36,000  Level FlightAware
18:08 42.1100 -61.6340 230° Southwest 453 521 36,000  Level FlightAware
18:09 42.0570 -61.7170 229° Southwest 453 521 36,000  Level FlightAware
18:10 42.0170 -61.7790 229° Southwest 453 521 36,000  Level FlightAware
18:10 41.9710 -61.8520 230° Southwest 450 518 36,000  Level FlightAware
18:11 41.9170 -61.9340 229° Southwest 450 518 36,000  Level FlightAware
18:11 41.8620 -62.0210 230° Southwest 443 510 36,000  Level FlightAware
18:12 41.8090 -62.1030 229° Southwest 443 510 36,000  Level FlightAware
18:13 41.7540 -62.1890 229° Southwest 442 509 36,000  Level FlightAware
18:14 41.6940 -62.2820 229° Southwest 442 509 36,000  Level FlightAware
18:14 41.6450 -62.3570 229° Southwest 443 510 36,000  Level FlightAware
18:15 41.6333 -62.3833 233° Southwest 444 511 36,000  Level New York Oceanic (ODAPS)
18:16 41.5010 -62.5780 229° Southwest 444 511 36,000  Level FlightAware
18:17 41.4500 -62.6550 229° Southwest 443 510 36,000  Level FlightAware
18:17 41.3860 -62.7520 229° Southwest 444 511 36,000  Level FlightAware
18:18 41.3450 -62.8160 230° Southwest 444 511 36,000  Level FlightAware
18:19 41.2760 -62.9200 229° Southwest 440 506 36,000  Level FlightAware
18:19 41.2350 -62.9820 229° Southwest 440 506 36,000 240 Level FlightAware
18:20 41.1780 -63.0670 233° Southwest 441 507 36,300 240 Climbing FlightAware
18:21 41.1340 -63.1330 228° Southwest 441 507 36,300 480 Level FlightAware
18:21 41.0750 -63.2220 229° Southwest 438 504 36,900 540 Climbing FlightAware
18:22 41.0300 -63.2880 228° Southwest 439 505 37,000 60 Climbing FlightAware
18:23 40.9660 -63.3840 229° Southwest 440 506 37,000  Level FlightAware
18:23 40.9230 -63.4470 228° Southwest 440 506 37,000  Level FlightAware
18:24 40.8660 -63.5320 228° Southwest 439 505 37,000  Level FlightAware
18:25 40.7950 -63.6360 228° Southwest 438 504 37,000  Level FlightAware
18:25 40.7430 -63.7130 228° Southwest 438 504 37,000  Level FlightAware
18:26 40.6920 -63.7880 228° Southwest 439 505 37,000  Level FlightAware
18:27 40.6490 -63.8510 228° Southwest 439 505 37,000  Level FlightAware
18:27 40.6070 -63.9120 228° Southwest 439 505 37,000  Level FlightAware
18:28 40.5650 -63.9740 228° Southwest 439 505 37,000  Level FlightAware
18:28 40.5230 -64.0350 228° Southwest 439 505 37,000  Level FlightAware
18:29 40.4810 -64.0960 228° Southwest 439 505 37,000  Level FlightAware
18:29 40.5000 -64.0667 233° Southwest 442 509 37,000  Level New York Oceanic (ODAPS)
18:30 40.4400 -64.1570 229° Southwest 439 505 37,000  Level FlightAware
18:30 46.4820 -61.6660 16° North 37,000  Level FlightAware
18:35 46.0724 -62.2060 223° Southwest  Level Estimated
18:36 39.9752 -64.9718 232° Southwest 442 509 37,000  Level FlightAware Transoceanic
18:37 39.8997 -65.0999 232° Southwest 442 509 37,000  Level FlightAware Transoceanic
18:38 39.8240 -65.2278 232° Southwest 442 509 37,000  Level FlightAware Transoceanic
18:39 39.7482 -65.3554 232° Southwest 442 509 37,000  Level FlightAware Transoceanic
18:40 39.6722 -65.4827 232° Southwest 442 509 37,000  Level FlightAware Transoceanic
18:41 39.5961 -65.6098 232° Southwest 442 509 37,000  Level FlightAware Transoceanic
18:42 39.5199 -65.7365 232° Southwest 442 509 37,000  Level FlightAware Transoceanic
18:42 39.3500 -65.6833 233° Southwest 440 506 37,000  Level New York Oceanic (ODAPS)
18:43 39.4435 -65.8630 232° Southwest 442 509 37,000  Level FlightAware Transoceanic
18:44 39.3670 -65.9892 232° Southwest 442 509 37,000  Level FlightAware Transoceanic
18:45 39.2903 -66.1151 232° Southwest 442 509 37,000  Level FlightAware Transoceanic
18:46 39.2136 -66.2408 232° Southwest 442 509 37,000  Level FlightAware Transoceanic
18:47 39.1366 -66.3661 232° Southwest 442 509 37,000  Level FlightAware Transoceanic
18:48 39.0596 -66.4912 232° Southwest 442 509 37,000  Level FlightAware Transoceanic
18:49 38.9001 -66.4561 233° Southwest 440 506 37,000  Level FlightAware Transoceanic
18:50 38.8246 -66.5839 233° Southwest 440 506 37,000  Level FlightAware Transoceanic
18:51 38.7490 -66.7115 233° Southwest 440 506 37,000  Level FlightAware Transoceanic
18:51 38.6333 -66.6667 234° Southwest 446 513 37,000  Level New York Oceanic (ODAPS)
18:52 38.6732 -66.8388 233° Southwest 440 506 37,000  Level FlightAware Transoceanic
18:53 38.5974 -66.9658 233° Southwest 440 506 37,000  Level FlightAware Transoceanic
18:54 38.5213 -67.0926 232° Southwest 440 506 37,000  Level FlightAware Transoceanic
18:55 38.4452 -67.2191 232° Southwest 440 506 37,000  Level FlightAware Transoceanic
18:56 38.3689 -67.3453 232° Southwest 440 506 37,000  Level FlightAware Transoceanic
18:57 38.1917 -67.4313 233° Southwest 446 513 37,000  Level FlightAware Transoceanic
18:58 38.1177 -67.5578 233° Southwest 446 513 37,000  Level FlightAware Transoceanic
18:59 38.0434 -67.6841 233° Southwest 446 513 37,000  Level FlightAware Transoceanic
19:00 37.9691 -67.8101 233° Southwest 446 513 37,000  Level FlightAware Transoceanic
19:01 37.8946 -67.9359 233° Southwest 446 513 37,000  Level FlightAware Transoceanic
19:02 37.8200 -68.0614 233° Southwest 446 513 37,000  Level FlightAware Transoceanic
19:03 37.7453 -68.1867 233° Southwest 446 513 37,000  Level FlightAware Transoceanic
19:04 37.6704 -68.3117 233° Southwest 446 513 37,000  Level FlightAware Transoceanic
19:05 37.5954 -68.4364 233° Southwest 446 513 37,000  Level FlightAware Transoceanic
19:06 37.5202 -68.5609 233° Southwest 446 513 37,000  Level FlightAware Transoceanic
19:07 37.4449 -68.6852 233° Southwest 446 513 37,000  Level FlightAware Transoceanic
19:08 37.3695 -68.8092 233° Southwest 446 513 37,000  Level FlightAware Transoceanic
19:09 37.2940 -68.9329 232° Southwest 446 513 37,000  Level FlightAware Transoceanic
19:10 37.2183 -69.0564 232° Southwest 446 513 37,000  Level FlightAware Transoceanic
19:11 37.1426 -69.1797 232° Southwest 446 513 37,000  Level FlightAware Transoceanic
19:12 37.0666 -69.3027 232° Southwest 446 513 37,000  Level FlightAware Transoceanic
19:13 36.9906 -69.4254 232° Southwest 446 513 37,000  Level FlightAware Transoceanic
19:14 36.9144 -69.5479 232° Southwest 446 513 37,000  Level FlightAware Transoceanic
19:15 36.8381 -69.6702 232° Southwest 446 513 37,000  Level FlightAware Transoceanic
19:16 36.7617 -69.7922 232° Southwest 446 513 37,000  Level FlightAware Transoceanic
19:16 36.7333 -69.8333 232° Southwest 466 536 37,000  Level New York Oceanic (ODAPS)
19:17 36.6852 -69.9140 232° Southwest 446 513 37,000  Level FlightAware Transoceanic
19:17 36.7333 -69.8333 232° Southwest 447 514 37,000  Level New York Oceanic (ODAPS)
19:18 36.6085 -70.0356 232° Southwest 446 513 37,000  Level FlightAware Transoceanic
19:18 36.7333 -69.8333 232° Southwest 447 514 37,000  Level New York Oceanic (ODAPS)
19:19 36.5317 -70.1569 232° Southwest 446 513 37,000  Level FlightAware Transoceanic
19:20 36.4548 -70.2779 232° Southwest 446 513 37,000  Level FlightAware Transoceanic
19:20 36.4333 -70.3167 232° Southwest 459 528 37,000  Level New York Oceanic (ODAPS)
19:21 36.3777 -70.3987 232° Southwest 446 513 37,000  Level FlightAware Transoceanic
19:21 36.3500 -70.4333 232° Southwest 419 482 37,000  Level New York Oceanic (ODAPS)
19:22 36.2798 -70.5488 232° Southwest 466 536 37,000  Level FlightAware Transoceanic
19:23 36.2038 -70.6673 231° Southwest 447 514 37,000  Level FlightAware Transoceanic
19:24 36.1276 -70.7855 231° Southwest 447 514 37,000  Level FlightAware Transoceanic
19:24 36.1500 -70.7500 231° Southwest 425 489 37,000  Level New York Oceanic (ODAPS)
19:25 36.0514 -70.9035 231° Southwest 447 514 37,000  Level FlightAware Transoceanic
19:26 35.9763 -71.0248 231° Southwest 459 528 37,000  Level FlightAware Transoceanic
19:27 35.9203 -71.1016 231° Southwest 419 482 37,000  Level FlightAware Transoceanic
19:28 35.8483 -71.2123 231° Southwest 419 482 37,000  Level FlightAware Transoceanic
19:29 35.7762 -71.3228 231° Southwest 419 482 37,000  Level FlightAware Transoceanic
19:30 35.7128 -71.4222 231° Southwest 425 489 37,000  Level FlightAware Transoceanic
19:31 35.6395 -71.5335 231° Southwest 425 489 37,000  Level FlightAware Transoceanic
19:32 35.5662 -71.6446 231° Southwest 425 489 37,000  Level FlightAware Transoceanic
19:33 35.4927 -71.7555 231° Southwest 425 489 37,000  Level FlightAware Transoceanic
19:33 35.9108 -72.2428 231° Southwest 466 536 37,000  Level New York Center
19:34 35.4192 -71.8662 231° Southwest 425 489 37,000  Level FlightAware Transoceanic
19:34 35.8178 -72.3383 220° Southwest 456 525 37,000  Level New York Center
19:35 35.3456 -71.9767 231° Southwest 425 489 37,000  Level FlightAware Transoceanic
19:35 35.7267 -72.4311 220° Southwest 444 511 37,000  Level New York Center
19:36 35.2718 -72.0870 231° Southwest 425 489 37,000  Level FlightAware Transoceanic
19:36 35.6272 -72.5261 218° Southwest 444 511 37,000  Level New York Center
19:37 35.1980 -72.1971 231° Southwest 425 489 37,000  Level FlightAware Transoceanic
19:37 35.5297 -72.6233 219° Southwest 444 511 37,000  Level New York Center
19:38 35.4364 -72.7153 219° Southwest 451 519 37,000  Level New York Center
19:39 35.3408 -72.8072 218° Southwest 451 519 37,000  Level New York Center
19:40 35.2411 -72.9036 218° Southwest 462 532 37,000  Level New York Center
19:41 35.1433 -73.0000 219° Southwest 450 518 37,000  Level New York Center
19:42 35.0478 -73.0936 219° Southwest 450 518 37,000  Level New York Center
19:43 34.9519 -73.1872 219° Southwest 450 518 37,000 360 Level New York Center
19:44 34.8583 -73.2753 218° Southwest 445 512 37,800 480 Climbing New York Center
19:45 34.7622 -73.3683 219° Southwest 440 506 38,000 60 Climbing New York Center
19:46 34.6706 -73.4561 218° Southwest 440 506 38,000  Level New York Center
19:47 34.5789 -73.5439 218° Southwest 440 506 38,000  Level New York Center
19:48 34.4847 -73.6336 218° Southwest 434 499 38,000  Level New York Center
19:50 34.3470 -73.7527 217° Southwest  Level FlightAware Approximate
19:57 33.8236 -74.2541 219° Southwest  Level FlightAware Approximate
19:58 33.7489 -74.3255 219° Southwest  Level FlightAware Approximate
19:59 33.6741 -74.3969 218° Southwest  Level FlightAware Approximate
20:00 33.5993 -74.4681 218° Southwest  Level FlightAware Approximate
20:01 33.5323 -74.5490 230° Southwest  Level FlightAware Approximate
20:02 33.4708 -74.6366 230° Southwest  Level FlightAware Approximate
20:03 33.4092 -74.7240 230° Southwest  Level FlightAware Approximate
20:04 33.3476 -74.8113 230° Southwest  Level FlightAware Approximate
20:04 33.0828 -75.1914 230° Southwest 436 502 38,000  Level New York Center
20:05 33.2859 -74.8985 230° Southwest  Level FlightAware Approximate
20:05 33.0097 -75.3014 232° Southwest 436 502 38,000  Level New York Center
20:06 33.2242 -74.9856 230° Southwest  Level FlightAware Approximate
20:06 32.9283 -75.4106 228° Southwest 441 507 38,000  Level New York Center
20:07 33.1623 -75.0725 230° Southwest  Level FlightAware Approximate
20:07 32.8444 -75.5219 228° Southwest 448 516 38,000  Level New York Center
20:08 33.1005 -75.1593 230° Southwest  Level FlightAware Approximate
20:08 32.7692 -75.6311 231° Southwest 442 509 38,000  Level New York Center
20:09 33.0386 -75.2460 230° Southwest  Level FlightAware Approximate
20:09 32.6917 -75.7375 229° Southwest 436 502 38,000  Level New York Center
20:11 32.5297 -75.9625 230° Southwest 426 490 38,000  Level Jacksonville Center
20:12 32.4483 -76.0769 230° Southwest 426 490 38,000  Level Jacksonville Center
20:13 32.3764 -76.1733 229° Southwest 421 484 38,000  Level Jacksonville Center
20:14 32.3044 -76.2719 229° Southwest 429 494 38,000  Level Jacksonville Center
20:15 32.2322 -76.3706 229° Southwest 424 488 38,000  Level Jacksonville Center
20:16 32.1483 -76.4819 228° Southwest 424 488 38,000  Level Jacksonville Center
20:17 32.0719 -76.5853 229° Southwest 427 491 38,000  Level Jacksonville Center
20:18 31.9939 -76.6911 229° Southwest 435 501 38,000  Level Jacksonville Center
20:19 31.9114 -76.7969 227° Southwest 428 493 38,000  Level Jacksonville Center
20:20 31.8331 -76.9072 230° Southwest 434 499 38,000  Level Jacksonville Center
20:21 31.7564 -77.0075 228° Southwest 434 499 38,000  Level Jacksonville Center
20:22 31.6803 -77.1219 232° Southwest 434 499 38,000  Level Jacksonville Center
20:23 31.6058 -77.2314 231° Southwest 434 499 38,000  Level Jacksonville Center
20:24 31.5356 -77.3381 232° Southwest 426 490 38,000  Level Jacksonville Center
20:25 31.4431 -77.4239 218° Southwest 432 497 38,000  Level Jacksonville Center
20:26 31.3214 -77.4531 192° South 417 480 38,000  Level Jacksonville Center
20:27 31.2008 -77.4672 186° South 427 491 38,000  Level Jacksonville Center
20:28 31.0767 -77.4889 189° South 440 506 38,000  Level Jacksonville Center
20:29 30.9547 -77.5200 192° South 451 519 38,000  Level Jacksonville Center
20:30 30.8303 -77.5369 187° South 451 519 38,000  Level Jacksonville Center
20:32 30.6287 -77.5276 190° South  Level FlightAware Approximate
20:33 30.4347 -77.6281 178° South 463 533 38,000  Level Miami Center
20:35 30.1864 -77.6525 185° South 455 524 38,000  Level Miami Center
20:36 30.0675 -77.6517 180° South 450 518 38,000  Level Miami Center
20:37 29.9406 -77.6461 178° South 441 507 38,000  Level Miami Center
20:38 29.8111 -77.6378 177° South 449 517 38,000  Level Miami Center
20:39 29.8137 -77.7125 178° South  Level FlightAware Approximate
20:39 29.6778 -77.6297 177° South 461 531 38,000  Level Miami Center
20:40 29.6947 -77.7078 178° South  Level FlightAware Approximate
20:40 29.5569 -77.6267 179° South 461 531 38,000  Level Miami Center
20:41 29.4275 -77.6208 178° South 461 531 38,000  Level Miami Center
20:42 29.2919 -77.6128 177° South 466 536 38,000  Level Miami Center
20:43 29.1711 -77.6119 180° South 472 543 38,000  Level Miami Center
20:44 29.0417 -77.6064 178° South 459 528 38,000  Level Miami Center
20:45 28.9103 -77.6008 178° South 472 543 38,000  Level Miami Center
20:47 28.7660 -77.5940 178° South  Level FlightAware Approximate
20:54 28.1002 -77.5627 178° South  Level FlightAware Approximate
20:55 28.0051 -77.5583 178° South  Level FlightAware Approximate
20:56 27.9100 -77.5539 178° South  Level FlightAware Approximate
20:56 27.5090 -77.8040 178° South 454 522 38,000  Level FlightAware
20:57 27.4370 -77.8410 205° Southwest 454 522 38,000  Level FlightAware
20:57 27.3780 -77.8700 204° Southwest 454 522 38,000  Level FlightAware
20:58 27.3190 -77.9000 204° Southwest 454 522 38,000  Level FlightAware
20:59 27.2400 -77.9420 205° Southwest 458 527 38,000  Level FlightAware
20:59 27.1490 -77.9880 204° Southwest 459 528 38,000  Level FlightAware
21:00 27.0820 -78.0230 205° Southwest 457 526 38,000  Level FlightAware
21:00 27.0049 -78.0616 204° Southwest 456 525 38,000  Level FlightAware ADS-B (KMCO)
21:01 26.9274 -78.1008 204° Southwest 456 525 38,000  Level FlightAware ADS-B (KMCO)
21:04 26.6776 -78.2596 204° Southwest  Level FlightAware Approximate
21:05 26.5688 -78.3130 204° Southwest  Level FlightAware Approximate
21:06 26.4601 -78.3664 204° Southwest  Level FlightAware Approximate
21:07 26.3513 -78.4197 204° Southwest  Level FlightAware Approximate
21:08 26.2425 -78.4729 204° Southwest  Level FlightAware Approximate
21:09 26.1336 -78.5259 204° Southwest  Level FlightAware Approximate
21:10 26.0247 -78.5786 203° Southwest  Level FlightAware Approximate
21:11 25.9153 -78.6303 203° Southwest  Level FlightAware Approximate
21:12 25.8060 -78.6818 203° Southwest  Level FlightAware Approximate
21:13 25.6966 -78.7333 203° Southwest  Level FlightAware Approximate
21:13 25.5330 -78.7970 203° Southwest 463 533 38,000  Level FlightAware
21:14 25.4660 -78.8300 204° Southwest 456 525 38,000  Level FlightAware
21:14 25.4050 -78.8600 204° Southwest 456 525 38,000  Level FlightAware
21:15 25.3380 -78.8930 204° Southwest 456 525 38,000  Level FlightAware
21:15 25.2710 -78.9260 204° Southwest 458 527 38,000  Level FlightAware
21:16 25.2010 -78.9600 204° Southwest 459 528 38,000  Level FlightAware
21:17 25.1310 -78.9940 204° Southwest 459 528 38,000  Level FlightAware
21:17 25.0520 -79.0330 204° Southwest 459 528 38,000  Level FlightAware
21:18 24.9810 -79.0670 203° Southwest 460 529 38,000  Level FlightAware
21:18 24.9230 -79.0960 204° Southwest 461 531 38,000  Level FlightAware
21:19 24.8550 -79.1290 204° Southwest 461 531 38,000  Level FlightAware
21:20 24.7750 -79.1680 204° Southwest 461 531 38,000  Level FlightAware
21:20 24.7140 -79.1970 203° Southwest 460 529 38,000  Level FlightAware
21:21 24.6480 -79.2300 204° Southwest 459 528 38,000  Level FlightAware
21:21 24.5660 -79.2690 203° Southwest 458 527 38,000  Level FlightAware
21:22 24.4980 -79.3020 204° Southwest 459 528 38,000  Level FlightAware
21:22 24.4370 -79.3310 203° Southwest 459 528 38,000 -180 Level FlightAware
21:23 24.3620 -79.3680 204° Southwest 463 533 37,800 -420 Descending FlightAware
21:23 24.3120 -79.3920 204° Southwest 473 544 37,600 -540 Descending FlightAware
21:24 24.2400 -79.4300 206° Southwest 473 544 37,300 -480 Descending FlightAware
21:25 24.1770 -79.4750 213° Southwest 464 534 37,100 -300 Descending FlightAware
21:25 24.1200 -79.5270 220° Southwest 469 540 37,000 -120 Descending FlightAware
21:26 24.0590 -79.6000 228° Southwest 467 537 37,000  Level FlightAware
21:26 24.0340 -79.6500 241° Southwest 460 529 37,000  Level FlightAware
21:27 24.0130 -79.7300 254° West 459 528 37,000  Level FlightAware
21:27 23.9910 -79.8080 253° West 460 529 37,000  Level FlightAware
21:28 23.9690 -79.8850 253° West 460 529 37,000  Level FlightAware
21:29 23.9500 -79.9550 253° West 460 529 37,000  Level FlightAware
21:29 23.9270 -80.0360 253° West 458 527 37,000  Level FlightAware
21:30 23.9070 -80.1060 253° West 460 529 37,000  Level FlightAware
21:30 23.8850 -80.1870 253° West 459 528 37,000  Level FlightAware
21:31 23.8600 -80.2730 252° West 458 527 37,000  Level FlightAware
21:32 23.8370 -80.3570 253° West 458 527 37,000  Level FlightAware
21:32 23.8190 -80.4210 253° West 460 529 37,000 -780 Level FlightAware
21:33 23.7960 -80.5010 253° West 466 536 36,200 -1,860 Descending FlightAware
21:33 23.7700 -80.5920 253° West 467 537 34,700 -2,100 Descending FlightAware
21:34 23.7480 -80.6700 253° West 461 531 33,600 -1,980 Descending FlightAware
21:34 23.7290 -80.7370 253° West 456 525 32,600 -1,860 Descending FlightAware
21:35 23.7070 -80.8130 252° West 451 519 31,600 -1,800 Descending FlightAware
21:36 23.6830 -80.8970 253° West 444 511 30,400 -1,860 Descending FlightAware
21:36 23.6620 -80.9700 253° West 440 506 29,300 -1,920 Descending FlightAware
21:37 23.6400 -81.0470 253° West 436 502 28,200 -1,860 Descending FlightAware
21:37 23.6220 -81.1090 252° West 432 497 27,300 -1,800 Descending FlightAware
21:38 23.5990 -81.1900 253° West 427 491 26,100 -1,800 Descending FlightAware
21:39 23.5810 -81.2540 253° West 424 488 25,200 -1,920 Descending FlightAware
21:39 23.5580 -81.3330 252° West 419 482 23,900 -1,920 Descending FlightAware
21:40 23.5400 -81.3950 252° West 411 473 23,000 -1,800 Descending FlightAware
21:40 23.5210 -81.4600 252° West 403 464 22,000 -1,800 Descending FlightAware
21:41 23.4980 -81.5390 252° West 397 457 20,800 -1,740 Descending FlightAware
21:41 23.4820 -81.5940 252° West 390 449 20,000 -1,800 Descending FlightAware
21:42 23.4630 -81.6600 253° West 383 441 18,900 -1,740 Descending FlightAware
21:43 23.4360 -81.7520 252° West 371 427 17,500 -1,080 Descending FlightAware
21:44 23.4160 -81.8190 252° West 370 426 17,300 -180 Descending FlightAware
21:44 23.4000 -81.8730 252° West 370 426 17,300 -1,740 Level FlightAware
21:45 23.3630 -81.9570 244° Southwest 346 398 14,900 -1,740 Descending FlightAware
21:46 23.3440 -82.0060 247° West 346 398 14,900  Level FlightAware
21:46 23.3250 -82.0550 247° West 346 398 14,900  Level FlightAware
21:49 23.1260 -82.2652 224° Southwest  Level Estimated
21:50 23.0406 -82.3550 224° Southwest  Level Estimated
21:51 22.9891 -82.4091 224° Southwest  Level Estimated
21:52 22.9891 -82.4091 51° Northeast  Level Estimated
21:53 22.9891 -82.4091 51° Northeast  Level Estimated
21:54 22.9891 -82.4091 51° Northeast  Level Estimated
21:55 22.9891 -82.4091 51° Northeast  Level Estimated
21:56 22.9891 -82.4091 51° Northeast  Level Estimated
21:57 22.9891 -82.4091 51° Northeast  Level Estimated
21:58 22.9891 -82.4091 51° Northeast  Level Estimated
21:59 22.9891 -82.4091 51° Northeast  Level Estimated
22:00 22.9891 -82.4091 51° Northeast  Level Estimated
22:01 22.9891 -82.4091 51° Northeast  Level Estimated
22:02 22.9891 -82.4091 51° Northeast  Level Estimated
22:03 22.9891 -82.4091 51° Northeast  Level Estimated
22:04 22.9891 -82.4091 51° Northeast  Level Estimated
22:05 22.9891 -82.4091 51° Northeast  Level Estimated
22:06 22.9891 -82.4091 51° Northeast  Level Estimated
22:07 22.9891 -82.4091 51° Northeast  Level Estimated
22:08 22.9891 -82.4091 51° Northeast  Level Estimated
22:09 22.9891 -82.4091 51° Northeast  Level Estimated
22:10 22.9891 -82.4091 51° Northeast  Level Estimated
22:11 22.9891 -82.4091 51° Northeast  Level Estimated
22:12 22.9891 -82.4091 51° Northeast  Level Estimated
22:13 22.9891 -82.4091 51° Northeast  Level Estimated